UAL2368 KDEN-KMSN
Flight info
| Callsign | UAL2368 |
|---|---|
| Flight time | 1h 40m |
| Altitude | 35000 |
| Route | EEONS8 WYNDM OBH ALO MSN |
| Aircraft | B738/M-SDE2E3FGHIRWXY/LB1 |
Departure
| Time | 2026-05-05 17:03 |
|---|---|
| Airport | Denver International Airport (KDEN) |
Arrival
| Time | 2026-05-05 18:44 |
|---|---|
| Airport | Dane County Regional Truax Field (KMSN) |
| Time | Latitude | Longitude | Altitude | Speed | Heading |
|---|---|---|---|---|---|
| 2026-05-05 16:37 | 39.85942 | -104.67244 | 5379 ft | 0 kts | 180° |
| 2026-05-05 16:55 | 39.85950 | -104.67244 | 5375 ft | 3 kts | 180° |
| 2026-05-05 16:55 | 39.85971 | -104.67244 | 5376 ft | 3 kts | 180° |
| 2026-05-05 16:56 | 39.85989 | -104.67245 | 5379 ft | 3 kts | 154° |
| 2026-05-05 16:56 | 39.86001 | -104.67259 | 5379 ft | 3 kts | 102° |
| 2026-05-05 16:56 | 39.86003 | -104.67274 | 5379 ft | 2 kts | 91° |
| 2026-05-05 16:56 | 39.86003 | -104.67295 | 5379 ft | 2 kts | 91° |
| 2026-05-05 16:57 | 39.86003 | -104.67299 | 5379 ft | 0 kts | 91° |
| 2026-05-05 16:57 | 39.86003 | -104.67298 | 5379 ft | 0 kts | 91° |
| 2026-05-05 16:58 | 39.86010 | -104.67289 | 5376 ft | 1 kts | 38° |
| 2026-05-05 16:59 | 39.86037 | -104.67294 | 5375 ft | 5 kts | 332° |
| 2026-05-05 16:59 | 39.86058 | -104.67334 | 5374 ft | 5 kts | 291° |
| 2026-05-05 16:59 | 39.86064 | -104.67401 | 5373 ft | 9 kts | 273° |
| 2026-05-05 16:59 | 39.86066 | -104.67530 | 5374 ft | 21 kts | 271° |
| 2026-05-05 17:00 | 39.86067 | -104.67729 | 5374 ft | 22 kts | 270° |
| 2026-05-05 17:00 | 39.86069 | -104.67922 | 5378 ft | 21 kts | 270° |
| 2026-05-05 17:00 | 39.86070 | -104.68088 | 5378 ft | 17 kts | 271° |
| 2026-05-05 17:00 | 39.86124 | -104.68217 | 5373 ft | 17 kts | 306° |
| 2026-05-05 17:01 | 39.86138 | -104.68360 | 5370 ft | 16 kts | 270° |
| 2026-05-05 17:01 | 39.86160 | -104.68492 | 5365 ft | 15 kts | 321° |
| 2026-05-05 17:01 | 39.86255 | -104.68507 | 5365 ft | 13 kts | 1° |
| 2026-05-05 17:01 | 39.86346 | -104.68506 | 5362 ft | 13 kts | 0° |
| 2026-05-05 17:02 | 39.86422 | -104.68548 | 5359 ft | 13 kts | 296° |
| 2026-05-05 17:02 | 39.86429 | -104.68668 | 5362 ft | 15 kts | 271° |
| 2026-05-05 17:02 | 39.86475 | -104.68718 | 5362 ft | 0 kts | 1° |
| 2026-05-05 17:02 | 39.86566 | -104.68716 | 5363 ft | 40 kts | 0° |
| 2026-05-05 17:03 | 39.87068 | -104.68711 | 5360 ft | 103 kts | 0° |
| 2026-05-05 17:03 | 39.87968 | -104.68699 | 5362 ft | 154 kts | 360° |
| 2026-05-05 17:03 | 39.89175 | -104.68700 | 5533 ft | 186 kts | 2° |
| 2026-05-05 17:03 | 39.90476 | -104.68709 | 6367 ft | 188 kts | 3° |
| 2026-05-05 17:04 | 39.91721 | -104.68443 | 7079 ft | 189 kts | 31° |
| 2026-05-05 17:04 | 39.92724 | -104.67297 | 7320 ft | 199 kts | 56° |
| 2026-05-05 17:04 | 39.93384 | -104.65623 | 7516 ft | 217 kts | 71° |
| 2026-05-05 17:04 | 39.93999 | -104.63723 | 7685 ft | 237 kts | 69° |
| 2026-05-05 17:05 | 39.94669 | -104.61701 | 8004 ft | 249 kts | 71° |
| 2026-05-05 17:05 | 39.95001 | -104.59459 | 8420 ft | 260 kts | 91° |
| 2026-05-05 17:05 | 39.95045 | -104.57021 | 8840 ft | 276 kts | 91° |
| 2026-05-05 17:05 | 39.95093 | -104.54499 | 9587 ft | 281 kts | 91° |
| 2026-05-05 17:06 | 39.95153 | -104.51945 | 9928 ft | 284 kts | 91° |
| 2026-05-05 17:06 | 39.95215 | -104.49358 | 9990 ft | 286 kts | 90° |
| 2026-05-05 17:06 | 39.95271 | -104.47619 | 10067 ft | 298 kts | 89° |
| 2026-05-05 17:06 | 39.95374 | -104.44833 | 10396 ft | 314 kts | 90° |
| 2026-05-05 17:07 | 39.95435 | -104.41934 | 10966 ft | 325 kts | 91° |
| 2026-05-05 17:07 | 39.95524 | -104.38966 | 11560 ft | 333 kts | 87° |
| 2026-05-05 17:07 | 39.95715 | -104.35964 | 11998 ft | 336 kts | 85° |
| 2026-05-05 17:07 | 39.95953 | -104.32868 | 12638 ft | 343 kts | 85° |
| 2026-05-05 17:08 | 39.96193 | -104.29740 | 13293 ft | 353 kts | 84° |
| 2026-05-05 17:08 | 39.96433 | -104.26516 | 13945 ft | 361 kts | 84° |
| 2026-05-05 17:08 | 39.96671 | -104.23250 | 14696 ft | 363 kts | 84° |
| 2026-05-05 17:08 | 39.96901 | -104.19973 | 15468 ft | 364 kts | 85° |
| 2026-05-05 17:09 | 39.97127 | -104.16656 | 16159 ft | 369 kts | 85° |
| 2026-05-05 17:09 | 39.97389 | -104.13310 | 16893 ft | 372 kts | 82° |
| 2026-05-05 17:09 | 39.97749 | -104.09957 | 17695 ft | 375 kts | 81° |
| 2026-05-05 17:09 | 39.98143 | -104.06581 | 18456 ft | 378 kts | 81° |
| 2026-05-05 17:10 | 39.98533 | -104.03218 | 19082 ft | 382 kts | 81° |
| 2026-05-05 17:10 | 39.98924 | -103.99767 | 19700 ft | 387 kts | 82° |
| 2026-05-05 17:10 | 39.99307 | -103.96276 | 20305 ft | 391 kts | 82° |
| 2026-05-05 17:10 | 39.99687 | -103.92744 | 20932 ft | 394 kts | 82° |
| 2026-05-05 17:11 | 40.00124 | -103.89199 | 21487 ft | 399 kts | 79° |
| 2026-05-05 17:11 | 40.00737 | -103.85642 | 22102 ft | 403 kts | 76° |
| 2026-05-05 17:11 | 40.01365 | -103.82053 | 22672 ft | 409 kts | 77° |
| 2026-05-05 17:11 | 40.01949 | -103.78412 | 23282 ft | 413 kts | 78° |
| 2026-05-05 17:12 | 40.02521 | -103.74723 | 23833 ft | 417 kts | 78° |
| 2026-05-05 17:12 | 40.03120 | -103.71000 | 24324 ft | 421 kts | 78° |
| 2026-05-05 17:12 | 40.03737 | -103.67243 | 24765 ft | 426 kts | 78° |
| 2026-05-05 17:12 | 40.04364 | -103.63450 | 25196 ft | 431 kts | 78° |
| 2026-05-05 17:13 | 40.05002 | -103.59590 | 25646 ft | 436 kts | 78° |
| 2026-05-05 17:13 | 40.05639 | -103.55715 | 26083 ft | 440 kts | 78° |
| 2026-05-05 17:13 | 40.06284 | -103.51778 | 26524 ft | 445 kts | 78° |
| 2026-05-05 17:13 | 40.06931 | -103.47808 | 26943 ft | 450 kts | 78° |
| 2026-05-05 17:14 | 40.07582 | -103.43789 | 27312 ft | 456 kts | 78° |
| 2026-05-05 17:14 | 40.08244 | -103.39721 | 27740 ft | 460 kts | 78° |
| 2026-05-05 17:14 | 40.08903 | -103.35630 | 28155 ft | 464 kts | 79° |
| 2026-05-05 17:14 | 40.09565 | -103.31493 | 28579 ft | 466 kts | 78° |
| 2026-05-05 17:15 | 40.10225 | -103.27383 | 28915 ft | 471 kts | 79° |
| 2026-05-05 17:15 | 40.10896 | -103.23202 | 29268 ft | 476 kts | 79° |
| 2026-05-05 17:15 | 40.11578 | -103.18932 | 29667 ft | 479 kts | 79° |
| 2026-05-05 17:15 | 40.12286 | -103.14657 | 30057 ft | 482 kts | 79° |
| 2026-05-05 17:16 | 40.12973 | -103.10339 | 30216 ft | 490 kts | 79° |
| 2026-05-05 17:16 | 40.13660 | -103.05933 | 30365 ft | 498 kts | 79° |
| 2026-05-05 17:16 | 40.14354 | -103.01476 | 30658 ft | 499 kts | 80° |
| 2026-05-05 17:16 | 40.15050 | -102.97014 | 30878 ft | 503 kts | 80° |
| 2026-05-05 17:17 | 40.15756 | -102.92506 | 31152 ft | 506 kts | 80° |
| 2026-05-05 17:17 | 40.16457 | -102.88004 | 31455 ft | 507 kts | 80° |
| 2026-05-05 17:17 | 40.17168 | -102.83463 | 31683 ft | 511 kts | 80° |
| 2026-05-05 17:17 | 40.17889 | -102.78898 | 31920 ft | 515 kts | 80° |
| 2026-05-05 17:18 | 40.18610 | -102.74302 | 32188 ft | 517 kts | 80° |
| 2026-05-05 17:18 | 40.19332 | -102.69659 | 32373 ft | 522 kts | 80° |
| 2026-05-05 17:18 | 40.20042 | -102.65052 | 32642 ft | 524 kts | 81° |
| 2026-05-05 17:18 | 40.20763 | -102.60372 | 32936 ft | 526 kts | 81° |
| 2026-05-05 17:19 | 40.21485 | -102.55673 | 33182 ft | 528 kts | 81° |
| 2026-05-05 17:19 | 40.22210 | -102.50949 | 33412 ft | 531 kts | 81° |
| 2026-05-05 17:19 | 40.22939 | -102.46186 | 33672 ft | 534 kts | 81° |
| 2026-05-05 17:19 | 40.23664 | -102.41427 | 33935 ft | 536 kts | 81° |
| 2026-05-05 17:20 | 40.24394 | -102.36634 | 34133 ft | 539 kts | 81° |
| 2026-05-05 17:20 | 40.25129 | -102.31806 | 34351 ft | 541 kts | 81° |
| 2026-05-05 17:20 | 40.25859 | -102.26989 | 34704 ft | 539 kts | 81° |
| 2026-05-05 17:20 | 40.26585 | -102.22178 | 35039 ft | 538 kts | 81° |
| 2026-05-05 17:21 | 40.27789 | -102.14140 | 35046 ft | 544 kts | 81° |
| 2026-05-05 17:22 | 40.27989 | -102.12806 | 35048 ft | 543 kts | 81° |
| 2026-05-05 17:22 | 40.29429 | -102.03167 | 35036 ft | 535 kts | 81° |
| 2026-05-05 17:23 | 40.30855 | -101.93557 | 35060 ft | 539 kts | 81° |
| 2026-05-05 17:23 | 40.32280 | -101.83895 | 35069 ft | 542 kts | 81° |
| 2026-05-05 17:24 | 40.33704 | -101.74174 | 35075 ft | 545 kts | 81° |
| 2026-05-05 17:24 | 40.35125 | -101.64413 | 35065 ft | 546 kts | 81° |
| 2026-05-05 17:25 | 40.36541 | -101.54641 | 35066 ft | 545 kts | 81° |
| 2026-05-05 17:25 | 40.37947 | -101.44874 | 35057 ft | 544 kts | 80° |
| 2026-05-05 17:25 | 40.38863 | -101.40077 | 35042 ft | 542 kts | 68° |
| 2026-05-05 17:26 | 40.40261 | -101.35569 | 35077 ft | 539 kts | 64° |
| 2026-05-05 17:26 | 40.43437 | -101.26670 | 35060 ft | 537 kts | 61° |
| 2026-05-05 17:27 | 40.46630 | -101.17807 | 35047 ft | 537 kts | 62° |
| 2026-05-05 17:27 | 40.49713 | -101.08882 | 35039 ft | 537 kts | 63° |
| 2026-05-05 17:28 | 40.52732 | -100.99909 | 35050 ft | 537 kts | 63° |
| 2026-05-05 17:28 | 40.55741 | -100.90910 | 35057 ft | 538 kts | 63° |
| 2026-05-05 17:29 | 40.58756 | -100.81895 | 35056 ft | 539 kts | 64° |
| 2026-05-05 17:29 | 40.61775 | -100.72856 | 35046 ft | 539 kts | 64° |
| 2026-05-05 17:30 | 40.64783 | -100.63822 | 35068 ft | 539 kts | 64° |
| 2026-05-05 17:30 | 40.67786 | -100.54769 | 35057 ft | 539 kts | 63° |
| 2026-05-05 17:31 | 40.70779 | -100.45713 | 35054 ft | 539 kts | 64° |
| 2026-05-05 17:31 | 40.73768 | -100.36644 | 35049 ft | 539 kts | 64° |
| 2026-05-05 17:32 | 40.76747 | -100.27582 | 35045 ft | 539 kts | 64° |
| 2026-05-05 17:32 | 40.79719 | -100.18502 | 35062 ft | 539 kts | 64° |
| 2026-05-05 17:33 | 40.82663 | -100.09481 | 35069 ft | 539 kts | 64° |
| 2026-05-05 17:33 | 40.85618 | -100.00396 | 35073 ft | 539 kts | 64° |
| 2026-05-05 17:34 | 40.88570 | -99.91288 | 35088 ft | 538 kts | 64° |
| 2026-05-05 17:34 | 40.91513 | -99.82181 | 35091 ft | 539 kts | 64° |
| 2026-05-05 17:35 | 40.94448 | -99.73067 | 35122 ft | 539 kts | 64° |
| 2026-05-05 17:35 | 40.97385 | -99.63919 | 35070 ft | 539 kts | 64° |
| 2026-05-05 17:36 | 41.00309 | -99.54780 | 35062 ft | 538 kts | 64° |
| 2026-05-05 17:36 | 41.03216 | -99.45660 | 35056 ft | 538 kts | 64° |
| 2026-05-05 17:37 | 41.06116 | -99.36531 | 35052 ft | 537 kts | 64° |
| 2026-05-05 17:37 | 41.09007 | -99.27403 | 35053 ft | 537 kts | 64° |
| 2026-05-05 17:38 | 41.11891 | -99.18270 | 35054 ft | 538 kts | 64° |
| 2026-05-05 17:38 | 41.14773 | -99.09110 | 35050 ft | 539 kts | 64° |
| 2026-05-05 17:39 | 41.17653 | -98.99921 | 35035 ft | 539 kts | 64° |
| 2026-05-05 17:39 | 41.20530 | -98.90716 | 35046 ft | 539 kts | 64° |
| 2026-05-05 17:40 | 41.23376 | -98.81576 | 35080 ft | 539 kts | 64° |
| 2026-05-05 17:40 | 41.26234 | -98.72358 | 35061 ft | 539 kts | 65° |
| 2026-05-05 17:41 | 41.29084 | -98.63138 | 35048 ft | 539 kts | 64° |
| 2026-05-05 17:41 | 41.31928 | -98.53908 | 35055 ft | 538 kts | 64° |
| 2026-05-05 17:42 | 41.34760 | -98.44686 | 35059 ft | 539 kts | 64° |
| 2026-05-05 17:42 | 41.37579 | -98.35447 | 35056 ft | 539 kts | 66° |
| 2026-05-05 17:43 | 41.39921 | -98.25935 | 35060 ft | 541 kts | 71° |
| 2026-05-05 17:43 | 41.42022 | -98.16297 | 35043 ft | 542 kts | 72° |
| 2026-05-05 17:44 | 41.44113 | -98.06704 | 35045 ft | 542 kts | 72° |
| 2026-05-05 17:44 | 41.46255 | -97.97072 | 35051 ft | 541 kts | 71° |
| 2026-05-05 17:45 | 41.48416 | -97.87450 | 35051 ft | 542 kts | 71° |
| 2026-05-05 17:45 | 41.50561 | -97.77823 | 35055 ft | 542 kts | 71° |
| 2026-05-05 17:46 | 41.52699 | -97.68178 | 35086 ft | 542 kts | 71° |
| 2026-05-05 17:46 | 41.54825 | -97.58524 | 35052 ft | 542 kts | 71° |
| 2026-05-05 17:47 | 41.56946 | -97.48862 | 35046 ft | 541 kts | 71° |
| 2026-05-05 17:47 | 41.59064 | -97.39200 | 35047 ft | 541 kts | 71° |
| 2026-05-05 17:48 | 41.61170 | -97.29551 | 35047 ft | 541 kts | 72° |
| 2026-05-05 17:48 | 41.63258 | -97.19892 | 35044 ft | 541 kts | 72° |
| 2026-05-05 17:49 | 41.65337 | -97.10246 | 35027 ft | 540 kts | 72° |
| 2026-05-05 17:49 | 41.67397 | -97.00655 | 35038 ft | 540 kts | 72° |
| 2026-05-05 17:50 | 41.69466 | -96.90982 | 35029 ft | 541 kts | 72° |
| 2026-05-05 17:50 | 41.71528 | -96.81299 | 35012 ft | 541 kts | 72° |
| 2026-05-05 17:51 | 41.73586 | -96.71603 | 35022 ft | 541 kts | 72° |
| 2026-05-05 17:51 | 41.75630 | -96.61896 | 35011 ft | 542 kts | 72° |
| 2026-05-05 17:52 | 41.77657 | -96.52237 | 35008 ft | 542 kts | 72° |
| 2026-05-05 17:52 | 41.79695 | -96.42490 | 35016 ft | 542 kts | 72° |
| 2026-05-05 17:53 | 41.81724 | -96.32731 | 35055 ft | 542 kts | 72° |
| 2026-05-05 17:53 | 41.83398 | -96.24641 | 35018 ft | 542 kts | 72° |
| 2026-05-05 17:54 | 41.85405 | -96.14901 | 35015 ft | 540 kts | 72° |
| 2026-05-05 17:54 | 41.87395 | -96.05199 | 35009 ft | 539 kts | 72° |
| 2026-05-05 17:55 | 41.89696 | -95.93932 | 35010 ft | 538 kts | 72° |
| 2026-05-05 17:55 | 41.91344 | -95.85823 | 35002 ft | 538 kts | 72° |
| 2026-05-05 17:56 | 41.93307 | -95.76129 | 34996 ft | 538 kts | 73° |
| 2026-05-05 17:56 | 41.95260 | -95.66418 | 34998 ft | 538 kts | 73° |
| 2026-05-05 17:57 | 41.97193 | -95.56769 | 35003 ft | 539 kts | 73° |
| 2026-05-05 17:57 | 41.99135 | -95.47029 | 34999 ft | 540 kts | 73° |
| 2026-05-05 17:58 | 42.01070 | -95.37284 | 34998 ft | 540 kts | 73° |
| 2026-05-05 17:58 | 42.02998 | -95.27518 | 35007 ft | 540 kts | 73° |
| 2026-05-05 17:59 | 42.04920 | -95.17741 | 34996 ft | 540 kts | 73° |
| 2026-05-05 17:59 | 42.06828 | -95.07984 | 34973 ft | 539 kts | 73° |
| 2026-05-05 18:00 | 42.08727 | -94.98219 | 34978 ft | 538 kts | 73° |
| 2026-05-05 18:00 | 42.10615 | -94.88462 | 34984 ft | 539 kts | 73° |
| 2026-05-05 18:01 | 42.12493 | -94.78708 | 34981 ft | 536 kts | 73° |
| 2026-05-05 18:01 | 42.14343 | -94.69064 | 34980 ft | 534 kts | 73° |
| 2026-05-05 18:02 | 42.16190 | -94.59374 | 34955 ft | 532 kts | 73° |
| 2026-05-05 18:02 | 42.18033 | -94.49723 | 34957 ft | 532 kts | 73° |
| 2026-05-05 18:03 | 42.19856 | -94.40052 | 34953 ft | 533 kts | 73° |
| 2026-05-05 18:03 | 42.21685 | -94.30326 | 34971 ft | 535 kts | 73° |
| 2026-05-05 18:04 | 42.23524 | -94.20582 | 34964 ft | 537 kts | 73° |
| 2026-05-05 18:04 | 42.25334 | -94.10823 | 34927 ft | 534 kts | 74° |
| 2026-05-05 18:05 | 42.27101 | -94.01121 | 34935 ft | 532 kts | 73° |
| 2026-05-05 18:05 | 42.28905 | -93.91442 | 34924 ft | 532 kts | 73° |
| 2026-05-05 18:06 | 42.30668 | -93.81768 | 34948 ft | 531 kts | 74° |
| 2026-05-05 18:06 | 42.32424 | -93.72079 | 34952 ft | 531 kts | 73° |
| 2026-05-05 18:07 | 42.34149 | -93.62440 | 34944 ft | 531 kts | 73° |
| 2026-05-05 18:07 | 42.35916 | -93.52741 | 34980 ft | 532 kts | 73° |
| 2026-05-05 18:08 | 42.37671 | -93.43006 | 34956 ft | 532 kts | 74° |
| 2026-05-05 18:08 | 42.39413 | -93.33264 | 34953 ft | 532 kts | 74° |
| 2026-05-05 18:09 | 42.41141 | -93.23516 | 34954 ft | 532 kts | 74° |
| 2026-05-05 18:09 | 42.42855 | -93.13798 | 34948 ft | 531 kts | 74° |
| 2026-05-05 18:10 | 42.44559 | -93.04093 | 34951 ft | 529 kts | 74° |
| 2026-05-05 18:10 | 42.46256 | -92.94383 | 34945 ft | 529 kts | 74° |
| 2026-05-05 18:11 | 42.47929 | -92.84770 | 34942 ft | 528 kts | 74° |
| 2026-05-05 18:11 | 42.49599 | -92.75091 | 34940 ft | 527 kts | 74° |
| 2026-05-05 18:12 | 42.51262 | -92.65395 | 34951 ft | 527 kts | 74° |
| 2026-05-05 18:12 | 42.52913 | -92.55718 | 34946 ft | 527 kts | 74° |
| 2026-05-05 18:13 | 42.54561 | -92.46043 | 34903 ft | 527 kts | 74° |
| 2026-05-05 18:13 | 42.55383 | -92.41184 | 34478 ft | 529 kts | 75° |
| 2026-05-05 18:13 | 42.56239 | -92.36332 | 34013 ft | 528 kts | 73° |
| 2026-05-05 18:13 | 42.57195 | -92.31530 | 33553 ft | 526 kts | 71° |
| 2026-05-05 18:14 | 42.58198 | -92.26777 | 33132 ft | 522 kts | 71° |
| 2026-05-05 18:14 | 42.59209 | -92.22069 | 32740 ft | 518 kts | 71° |
| 2026-05-05 18:14 | 42.60210 | -92.17385 | 32399 ft | 515 kts | 71° |
| 2026-05-05 18:14 | 42.61183 | -92.12765 | 32326 ft | 503 kts | 72° |
| 2026-05-05 18:15 | 42.62121 | -92.08252 | 32303 ft | 490 kts | 72° |
| 2026-05-05 18:15 | 42.63951 | -91.99324 | 32320 ft | 498 kts | 72° |
| 2026-05-05 18:16 | 42.65810 | -91.90190 | 32329 ft | 509 kts | 72° |
| 2026-05-05 18:16 | 42.67690 | -91.80881 | 32329 ft | 506 kts | 72° |
| 2026-05-05 18:16 | 42.68618 | -91.76278 | 32207 ft | 504 kts | 72° |
| 2026-05-05 18:17 | 42.69526 | -91.71762 | 31928 ft | 500 kts | 73° |
| 2026-05-05 18:17 | 42.70618 | -91.67344 | 31579 ft | 487 kts | 62° |
| 2026-05-05 18:17 | 42.72186 | -91.63329 | 31109 ft | 475 kts | 52° |
| 2026-05-05 18:17 | 42.73951 | -91.59553 | 30621 ft | 471 kts | 52° |
| 2026-05-05 18:18 | 42.75704 | -91.55808 | 30136 ft | 467 kts | 52° |
| 2026-05-05 18:18 | 42.77437 | -91.52084 | 29606 ft | 463 kts | 53° |
| 2026-05-05 18:18 | 42.79141 | -91.48386 | 29040 ft | 459 kts | 53° |
| 2026-05-05 18:18 | 42.80824 | -91.44706 | 28458 ft | 456 kts | 53° |
| 2026-05-05 18:19 | 42.82488 | -91.41049 | 27879 ft | 453 kts | 53° |
| 2026-05-05 18:19 | 42.84133 | -91.37420 | 27338 ft | 449 kts | 54° |
| 2026-05-05 18:19 | 42.85768 | -91.33805 | 26810 ft | 446 kts | 54° |
| 2026-05-05 18:19 | 42.87387 | -91.30220 | 26301 ft | 441 kts | 54° |
| 2026-05-05 18:20 | 42.88987 | -91.26671 | 25773 ft | 438 kts | 54° |
| 2026-05-05 18:20 | 42.90572 | -91.23154 | 25229 ft | 435 kts | 54° |
| 2026-05-05 18:20 | 42.92152 | -91.19645 | 24747 ft | 431 kts | 54° |
| 2026-05-05 18:20 | 42.93706 | -91.16186 | 24349 ft | 424 kts | 54° |
| 2026-05-05 18:21 | 42.95232 | -91.12779 | 24005 ft | 417 kts | 54° |
| 2026-05-05 18:21 | 42.96736 | -91.09431 | 23652 ft | 410 kts | 54° |
| 2026-05-05 18:21 | 42.98214 | -91.06134 | 23275 ft | 404 kts | 54° |
| 2026-05-05 18:21 | 42.99680 | -91.02863 | 22920 ft | 403 kts | 54° |
| 2026-05-05 18:22 | 43.01129 | -90.99634 | 22564 ft | 405 kts | 54° |
| 2026-05-05 18:22 | 43.02598 | -90.96353 | 22235 ft | 405 kts | 53° |
| 2026-05-05 18:22 | 43.04063 | -90.93072 | 21874 ft | 404 kts | 54° |
| 2026-05-05 18:22 | 43.05525 | -90.89788 | 21534 ft | 404 kts | 53° |
| 2026-05-05 18:23 | 43.06987 | -90.86511 | 21188 ft | 403 kts | 54° |
| 2026-05-05 18:23 | 43.08447 | -90.83236 | 20852 ft | 403 kts | 54° |
| 2026-05-05 18:23 | 43.09898 | -90.79967 | 20506 ft | 402 kts | 54° |
| 2026-05-05 18:23 | 43.11347 | -90.76701 | 20156 ft | 401 kts | 54° |
| 2026-05-05 18:24 | 43.12791 | -90.73434 | 19822 ft | 401 kts | 54° |
| 2026-05-05 18:24 | 43.14237 | -90.70165 | 19482 ft | 400 kts | 54° |
| 2026-05-05 18:24 | 43.15681 | -90.66902 | 19136 ft | 400 kts | 54° |
| 2026-05-05 18:24 | 43.17124 | -90.63639 | 18786 ft | 400 kts | 54° |
| 2026-05-05 18:25 | 43.18564 | -90.60378 | 18441 ft | 400 kts | 54° |
| 2026-05-05 18:25 | 43.19518 | -90.58216 | 18210 ft | 399 kts | 54° |
| 2026-05-05 18:25 | 43.21410 | -90.53919 | 17799 ft | 395 kts | 54° |
| 2026-05-05 18:25 | 43.22823 | -90.50701 | 17484 ft | 393 kts | 53° |
| 2026-05-05 18:26 | 43.24227 | -90.47493 | 17133 ft | 392 kts | 53° |
| 2026-05-05 18:26 | 43.25633 | -90.44292 | 16778 ft | 391 kts | 53° |
| 2026-05-05 18:26 | 43.27030 | -90.41111 | 16424 ft | 389 kts | 53° |
| 2026-05-05 18:26 | 43.28420 | -90.37939 | 16090 ft | 387 kts | 53° |
| 2026-05-05 18:27 | 43.29801 | -90.34782 | 15761 ft | 385 kts | 53° |
| 2026-05-05 18:27 | 43.31175 | -90.31637 | 15431 ft | 383 kts | 53° |
| 2026-05-05 18:27 | 43.32540 | -90.28504 | 15099 ft | 381 kts | 53° |
| 2026-05-05 18:27 | 43.33899 | -90.25387 | 14766 ft | 380 kts | 53° |
| 2026-05-05 18:28 | 43.36600 | -90.19180 | 14116 ft | 378 kts | 53° |
| 2026-05-05 18:28 | 43.37942 | -90.16087 | 13780 ft | 376 kts | 53° |
| 2026-05-05 18:28 | 43.39280 | -90.13004 | 13426 ft | 374 kts | 53° |
| 2026-05-05 18:29 | 43.40606 | -90.09949 | 13069 ft | 369 kts | 54° |
| 2026-05-05 18:29 | 43.41898 | -90.06954 | 12728 ft | 357 kts | 53° |
| 2026-05-05 18:29 | 43.43146 | -90.04069 | 12455 ft | 345 kts | 54° |
| 2026-05-05 18:29 | 43.44355 | -90.01273 | 12173 ft | 334 kts | 54° |
| 2026-05-05 18:30 | 43.45528 | -89.98562 | 11879 ft | 327 kts | 54° |
| 2026-05-05 18:30 | 43.46694 | -89.95869 | 11566 ft | 327 kts | 54° |
| 2026-05-05 18:30 | 43.47855 | -89.93184 | 11275 ft | 325 kts | 54° |
| 2026-05-05 18:30 | 43.49000 | -89.90524 | 11007 ft | 321 kts | 54° |
| 2026-05-05 18:31 | 43.50117 | -89.87928 | 10721 ft | 316 kts | 54° |
| 2026-05-05 18:31 | 43.51220 | -89.85357 | 10457 ft | 307 kts | 54° |
| 2026-05-05 18:31 | 43.52305 | -89.82831 | 10195 ft | 298 kts | 54° |
| 2026-05-05 18:31 | 43.53344 | -89.80415 | 10048 ft | 288 kts | 54° |
| 2026-05-05 18:32 | 43.54269 | -89.77959 | 9827 ft | 296 kts | 70° |
| 2026-05-05 18:32 | 43.54361 | -89.75143 | 9643 ft | 295 kts | 104° |
| 2026-05-05 18:32 | 43.53589 | -89.72582 | 9655 ft | 287 kts | 121° |
| 2026-05-05 18:32 | 43.52589 | -89.70199 | 9343 ft | 294 kts | 123° |
| 2026-05-05 18:33 | 43.51545 | -89.67794 | 9033 ft | 290 kts | 123° |
| 2026-05-05 18:33 | 43.50523 | -89.65439 | 8765 ft | 281 kts | 123° |
| 2026-05-05 18:33 | 43.49550 | -89.63180 | 8483 ft | 270 kts | 123° |
| 2026-05-05 18:33 | 43.48608 | -89.60983 | 8254 ft | 262 kts | 123° |
| 2026-05-05 18:34 | 43.47694 | -89.58856 | 7992 ft | 256 kts | 123° |
| 2026-05-05 18:34 | 43.46795 | -89.56758 | 7720 ft | 252 kts | 122° |
| 2026-05-05 18:34 | 43.45909 | -89.54687 | 7477 ft | 250 kts | 122° |
| 2026-05-05 18:34 | 43.45034 | -89.52639 | 7226 ft | 248 kts | 122° |
| 2026-05-05 18:35 | 43.44164 | -89.50603 | 7001 ft | 245 kts | 122° |
| 2026-05-05 18:35 | 43.43300 | -89.48578 | 6765 ft | 246 kts | 122° |
| 2026-05-05 18:35 | 43.42431 | -89.46545 | 6527 ft | 247 kts | 122° |
| 2026-05-05 18:35 | 43.41556 | -89.44500 | 6267 ft | 247 kts | 122° |
| 2026-05-05 18:36 | 43.40691 | -89.42471 | 6018 ft | 245 kts | 122° |
| 2026-05-05 18:36 | 43.39844 | -89.40486 | 5762 ft | 242 kts | 122° |
| 2026-05-05 18:36 | 43.38998 | -89.38503 | 5538 ft | 240 kts | 122° |
| 2026-05-05 18:36 | 43.38150 | -89.36524 | 5293 ft | 239 kts | 122° |
| 2026-05-05 18:37 | 43.37312 | -89.34564 | 5074 ft | 238 kts | 122° |
| 2026-05-05 18:37 | 43.36478 | -89.32616 | 4887 ft | 235 kts | 122° |
| 2026-05-05 18:37 | 43.35652 | -89.30689 | 4773 ft | 236 kts | 122° |
| 2026-05-05 18:37 | 43.34814 | -89.28731 | 4696 ft | 240 kts | 122° |
| 2026-05-05 18:38 | 43.33966 | -89.26755 | 4591 ft | 241 kts | 122° |
| 2026-05-05 18:38 | 43.33116 | -89.24774 | 4472 ft | 240 kts | 121° |
| 2026-05-05 18:38 | 43.32273 | -89.22803 | 4371 ft | 240 kts | 122° |
| 2026-05-05 18:38 | 43.31238 | -89.21035 | 4176 ft | 237 kts | 150° |
| 2026-05-05 18:39 | 43.29764 | -89.20530 | 3977 ft | 209 kts | 193° |
| 2026-05-05 18:39 | 43.28609 | -89.21411 | 3822 ft | 181 kts | 231° |
| 2026-05-05 18:39 | 43.27687 | -89.22507 | 3606 ft | 177 kts | 208° |
| 2026-05-05 18:39 | 43.26568 | -89.23127 | 3479 ft | 168 kts | 216° |
| 2026-05-05 18:40 | 43.25619 | -89.23975 | 3359 ft | 160 kts | 220° |
| 2026-05-05 18:40 | 43.24672 | -89.24812 | 3181 ft | 165 kts | 218° |
| 2026-05-05 18:40 | 43.23717 | -89.25646 | 2947 ft | 159 kts | 217° |
| 2026-05-05 18:40 | 43.22784 | -89.26403 | 2732 ft | 151 kts | 216° |
| 2026-05-05 18:41 | 43.21941 | -89.27107 | 2562 ft | 135 kts | 219° |
| 2026-05-05 18:41 | 43.21164 | -89.27788 | 2365 ft | 131 kts | 218° |
| 2026-05-05 18:41 | 43.20370 | -89.28419 | 2171 ft | 131 kts | 219° |
| 2026-05-05 18:41 | 43.19597 | -89.29079 | 2024 ft | 133 kts | 218° |
| 2026-05-05 18:42 | 43.18806 | -89.29743 | 1788 ft | 132 kts | 217° |
| 2026-05-05 18:42 | 43.18060 | -89.30429 | 1541 ft | 128 kts | 222° |
| 2026-05-05 18:42 | 43.17326 | -89.31118 | 1354 ft | 128 kts | 217° |
| 2026-05-05 18:42 | 43.16534 | -89.31755 | 1206 ft | 137 kts | 214° |
| 2026-05-05 18:43 | 43.15683 | -89.32378 | 1043 ft | 137 kts | 216° |
| 2026-05-05 18:43 | 43.14883 | -89.32991 | 878 ft | 127 kts | 213° |
| 2026-05-05 18:43 | 43.14402 | -89.33346 | 864 ft | 110 kts | 220° |
| 2026-05-05 18:43 | 43.13878 | -89.33766 | 867 ft | 67 kts | 206° |
| 2026-05-05 18:44 | 43.13592 | -89.33978 | 868 ft | 38 kts | 210° |
| 2026-05-05 18:44 | 43.13452 | -89.34038 | 867 ft | 10 kts | 140° |
| 2026-05-05 18:44 | 43.13424 | -89.33965 | 868 ft | 7 kts | 90° |
| 2026-05-05 18:44 | 43.13451 | -89.33915 | 870 ft | 7 kts | 38° |
| 2026-05-05 18:45 | 43.13490 | -89.33883 | 870 ft | 9 kts | 28° |
| 2026-05-05 18:45 | 43.13547 | -89.33840 | 871 ft | 10 kts | 28° |
| 2026-05-05 18:45 | 43.13611 | -89.33793 | 871 ft | 11 kts | 29° |
| 2026-05-05 18:45 | 43.13678 | -89.33741 | 872 ft | 11 kts | 29° |
| 2026-05-05 18:46 | 43.13746 | -89.33690 | 871 ft | 12 kts | 28° |
| 2026-05-05 18:46 | 43.13852 | -89.33611 | 868 ft | 22 kts | 29° |
| 2026-05-05 18:46 | 43.13985 | -89.33512 | 859 ft | 16 kts | 27° |
| 2026-05-05 18:46 | 43.14040 | -89.33583 | 858 ft | 13 kts | 273° |
| 2026-05-05 18:47 | 43.14042 | -89.33730 | 865 ft | 21 kts | 270° |
| 2026-05-05 18:47 | 43.14044 | -89.33940 | 865 ft | 22 kts | 271° |
| 2026-05-05 18:47 | 43.14049 | -89.34131 | 871 ft | 19 kts | 272° |
| 2026-05-05 18:47 | 43.14048 | -89.34242 | 871 ft | 9 kts | 260° |
| 2026-05-05 18:48 | 43.13973 | -89.34298 | 869 ft | 17 kts | 187° |
| 2026-05-05 18:48 | 43.13923 | -89.34382 | 867 ft | 9 kts | 216° |
| 2026-05-05 18:48 | 43.13823 | -89.34374 | 854 ft | 17 kts | 178° |
| 2026-05-05 18:48 | 43.13750 | -89.34389 | 867 ft | 4 kts | 234° |
| 2026-05-05 18:49 | 43.13745 | -89.34431 | 855 ft | 8 kts | 272° |
| 2026-05-05 18:49 | 43.13748 | -89.34493 | 866 ft | 2 kts | 273° |